createdAt,value
2019-04-29T00:02:38.718Z,100623.67
2019-04-29T00:07:42.178Z,100621.49
2019-04-29T00:12:45.638Z,100613.33
2019-04-29T00:17:53.723Z,100614.72
2019-04-29T00:22:57.186Z,100606.19
2019-04-29T00:28:00.645Z,100607.58
2019-04-29T00:33:04.178Z,100597.84
2019-04-29T00:38:12.012Z,100606.98
2019-04-29T00:43:19.774Z,100606.80
2019-04-29T00:48:23.240Z,100601.84
2019-04-29T00:53:27.172Z,100597.84
2019-04-29T00:58:30.633Z,100604.80
2019-04-29T01:03:34.099Z,100600.45
2019-04-29T01:08:37.566Z,100605.41
2019-04-29T01:13:41.026Z,100599.06
2019-04-29T01:18:44.495Z,100603.23
2019-04-29T01:23:47.959Z,100590.71
2019-04-29T01:28:55.771Z,100589.32
2019-04-29T01:34:00.868Z,100593.49
2019-04-29T01:39:08.042Z,100594.55
2019-04-29T01:44:12.175Z,100594.73
2019-04-29T01:49:15.638Z,100594.73
2019-04-29T01:54:19.102Z,100595.94
2019-04-29T01:59:22.568Z,100597.33
2019-04-29T02:04:26.046Z,100605.67
2019-04-29T02:09:34.083Z,100595.94
2019-04-29T02:14:37.547Z,100590.38
2019-04-29T02:19:41.014Z,100595.94
2019-04-29T02:24:49.017Z,100593.76
2019-04-29T02:29:52.483Z,100586.02
2019-04-29T02:34:55.945Z,100584.02
2019-04-29T02:40:09.903Z,100579.84
2019-04-29T02:45:15.245Z,100572.11
2019-04-29T02:50:19.197Z,100570.53
2019-04-29T02:55:24.286Z,100569.33
2019-04-29T03:00:35.186Z,100561.59
2019-04-29T03:05:43.363Z,100560.80
2019-04-29T03:10:47.188Z,100553.06
2019-04-29T03:15:50.814Z,100543.92
2019-04-29T03:20:55.928Z,100548.89
2019-04-29T03:25:59.373Z,100546.89
2019-04-29T03:31:02.837Z,100543.33
2019-04-29T03:36:06.364Z,100543.74
2019-04-29T03:41:09.815Z,100540.55
2019-04-29T03:46:13.281Z,100540.36
2019-04-29T03:51:16.735Z,100536.79
2019-04-29T03:56:20.199Z,100527.05
2019-04-29T04:01:25.306Z,100524.72
2019-04-29T04:06:30.407Z,100527.50
2019-04-29T04:11:33.867Z,100531.67
2019-04-29T04:16:50.876Z,100535.06
2019-04-29T04:21:54.338Z,100532.28
2019-04-29T04:26:57.799Z,100538.45
2019-04-29T04:32:01.277Z,100537.84
2019-04-29T04:37:04.739Z,100537.66
2019-04-29T04:42:08.203Z,100543.22
2019-04-29T04:47:11.670Z,100532.88
2019-04-29T04:52:15.131Z,100534.88
2019-04-29T04:57:18.591Z,100527.74
2019-04-29T05:02:23.692Z,100526.35
2019-04-29T05:07:27.155Z,100533.48
2019-04-29T05:12:30.620Z,100522.18
2019-04-29T05:17:34.080Z,100516.61
2019-04-29T05:22:37.538Z,100511.66
2019-04-29T05:27:40.992Z,100506.70
2019-04-29T05:32:44.459Z,100518.61
2019-04-29T05:37:56.900Z,100519.22
2019-04-29T05:43:00.456Z,100519.39
2019-04-29T05:48:05.557Z,100526.16
2019-04-29T05:53:25.976Z,100512.27
2019-04-29T05:58:32.889Z,100505.91
2019-04-29T06:03:37.809Z,100496.97
2019-04-29T06:08:40.580Z,100501.73
2019-04-29T06:13:44.164Z,100492.61
2019-04-29T06:18:47.623Z,100481.91
2019-04-29T06:23:54.281Z,100473.56
2019-04-29T06:28:56.277Z,100478.52
2019-04-29T06:34:00.570Z,100479.91
2019-04-29T06:39:06.190Z,100480.18
2019-04-29T06:44:16.084Z,100482.08
2019-04-29T06:49:14.842Z,100481.28
2019-04-29T06:54:18.305Z,100476.31
2019-04-29T06:59:21.762Z,100484.44
2019-04-29T07:04:25.227Z,100477.66
2019-04-29T07:09:28.691Z,100477.03
2019-04-29T07:14:32.916Z,100483.93
2019-04-29T07:19:37.336Z,100467.98
2019-04-29T07:24:40.797Z,100457.66
2019-04-29T07:29:44.263Z,100460.20
2019-04-29T07:34:47.729Z,100453.20
2019-04-29T07:39:51.188Z,100449.98
2019-04-29T07:45:12.651Z,100465.82
2019-04-29T07:50:16.452Z,100463.59
2019-04-29T07:55:19.886Z,100468.52
2019-04-29T08:00:32.099Z,100477.41
2019-04-29T08:05:35.986Z,100463.52
2019-04-29T08:10:53.579Z,100455.00
2019-04-29T08:15:44.625Z,100453.80
2019-04-29T08:20:48.089Z,100436.52
2019-04-29T08:25:51.550Z,100429.57
2019-04-29T08:30:55.009Z,100427.34
2019-04-29T08:35:58.547Z,100427.69
2019-04-29T08:41:02.010Z,100419.91
2019-04-29T08:46:10.144Z,100405.32
2019-04-29T08:51:13.606Z,100421.16
2019-04-29T08:56:17.068Z,100424.67
2019-04-29T09:06:27.871Z,100403.08
2019-04-29T09:11:29.281Z,100395.71
2019-04-29T09:16:32.735Z,100395.11
2019-04-29T09:21:36.200Z,100395.05
2019-04-29T09:26:41.288Z,100384.09
2019-04-29T09:31:46.739Z,100382.03
2019-04-29T09:36:50.252Z,100353.11
2019-04-29T09:42:08.063Z,100384.25
2019-04-29T09:47:10.650Z,100392.31
2019-04-29T09:52:14.112Z,100392.23
2019-04-29T09:57:17.805Z,100414.23
2019-04-29T10:07:33.796Z,100383.07
2019-04-29T10:12:37.254Z,100369.95
2019-04-29T10:17:45.852Z,100354.83
2019-04-29T10:22:53.806Z,100343.03
2019-04-29T10:27:55.632Z,100338.86
2019-04-29T10:32:59.094Z,100336.77
2019-04-29T10:38:03.183Z,100320.77
2019-04-29T10:43:11.319Z,100319.56
2019-04-29T10:48:19.018Z,100318.17
2019-04-29T10:53:22.546Z,100317.98
2019-04-29T10:58:30.312Z,100312.09
2019-04-29T11:03:32.098Z,100309.13
2019-04-29T11:08:38.122Z,100309.80
2019-04-29T11:13:48.343Z,100302.95
2019-04-29T11:18:47.643Z,100287.29
2019-04-29T11:23:54.909Z,100288.17
2019-04-29T11:28:59.266Z,100282.86
2019-04-29T11:34:07.374Z,100290.66
2019-04-29T11:39:13.807Z,100293.27
2019-04-29T11:44:17.062Z,100308.23
2019-04-29T11:49:22.180Z,100309.08
2019-04-29T11:54:25.651Z,100315.84
2019-04-29T11:59:33.931Z,100315.33
2019-04-29T12:04:42.334Z,100320.72
2019-04-29T12:09:46.057Z,100310.63
2019-04-29T12:14:51.172Z,100304.70
2019-04-29T12:19:56.288Z,100300.98
2019-04-29T12:24:59.763Z,100280.55
2019-04-29T12:30:06.621Z,100277.59
2019-04-29T12:35:12.174Z,100268.28
2019-04-29T12:40:17.574Z,100265.94
2019-04-29T12:45:22.715Z,100267.77
2019-04-29T12:50:26.314Z,100257.27
2019-04-29T12:55:44.041Z,100258.47
2019-04-29T13:00:47.882Z,100255.15
2019-04-29T13:06:02.711Z,100255.15
2019-04-29T13:11:08.014Z,100249.59
2019-04-29T13:16:20.070Z,100244.45
2019-04-29T13:21:20.345Z,100254.79
2019-04-29T13:26:28.429Z,100247.69
2019-04-29T13:31:38.075Z,100249.08
2019-04-29T13:36:34.435Z,100243.95
2019-04-29T13:41:56.149Z,100235.60
2019-04-29T13:47:00.890Z,100235.42
2019-04-29T13:52:14.026Z,100230.47
2019-04-29T13:57:17.501Z,100233.86
2019-04-29T14:02:33.542Z,100221.77
2019-04-29T14:07:34.052Z,100218.78
2019-04-29T14:13:05.120Z,100222.95
2019-04-29T14:17:42.700Z,100218.78
2019-04-29T14:22:46.159Z,100212.11
2019-04-29T14:27:49.617Z,100214.28
2019-04-29T14:32:54.726Z,100214.09
2019-04-29T14:38:04.570Z,100204.38
2019-04-29T14:43:28.907Z,100220.87
2019-04-29T14:48:41.088Z,100215.31
2019-04-29T14:53:33.176Z,100216.52
2019-04-29T14:58:36.797Z,100212.95
2019-04-29T15:03:58.194Z,100219.72
2019-04-29T15:09:01.699Z,100216.34
2019-04-29T15:14:25.073Z,100226.67
2019-04-29T15:19:49.369Z,100222.08
2019-04-29T15:24:51.377Z,100231.74
2019-04-29T15:29:54.843Z,100234.28
2019-04-29T15:34:58.305Z,100227.51
2019-04-29T15:40:01.969Z,100234.81
2019-04-29T15:45:08.988Z,100233.61
2019-04-29T15:50:18.887Z,100235.33
2019-04-29T15:55:18.275Z,100237.35
2019-04-29T16:00:23.541Z,100243.34
2019-04-29T16:05:34.468Z,100246.12
2019-04-29T16:10:57.995Z,100243.34
2019-04-29T16:16:00.136Z,100253.06
2019-04-29T16:21:03.867Z,100241.16
2019-04-29T16:26:07.354Z,100246.12
2019-04-29T16:31:12.082Z,100246.91
2019-04-29T16:36:15.973Z,100248.90
2019-04-29T16:41:21.091Z,100250.89
2019-04-29T16:46:35.453Z,100250.11
2019-04-29T16:51:31.372Z,100260.02
2019-04-29T16:56:34.833Z,100259.41
2019-04-29T17:01:38.367Z,100252.64
2019-04-29T17:06:59.584Z,100254.64
2019-04-29T17:11:50.524Z,100260.34
2019-04-29T17:16:53.038Z,100261.92
2019-04-29T17:22:23.688Z,100267.05
2019-04-29T17:27:15.616Z,100271.22
2019-04-29T17:32:21.645Z,100266.45
2019-04-29T17:37:25.457Z,100269.77
2019-04-29T17:42:30.558Z,100268.56
2019-04-29T17:47:47.415Z,100265.60
2019-04-29T17:52:50.078Z,100263.67
2019-04-29T17:57:55.178Z,100268.80
2019-04-29T18:03:16.439Z,100270.10
2019-04-29T18:08:33.754Z,100269.50
2019-04-29T18:13:37.185Z,100273.06
2019-04-29T18:18:46.642Z,100278.80
2019-04-29T18:24:00.808Z,100272.81
2019-04-29T18:29:07.658Z,100273.61
2019-04-29T18:34:09.796Z,100277.17
2019-04-29T18:39:15.955Z,100278.14
2019-04-29T18:44:19.834Z,100276.29
2019-04-29T18:49:23.377Z,100277.68
2019-04-29T18:54:27.067Z,100277.26
2019-04-29T18:59:33.475Z,100283.00
2019-04-29T19:04:40.105Z,100285.78
2019-04-29T19:09:45.288Z,100288.73
2019-04-29T19:14:49.306Z,100291.70
2019-04-29T19:19:52.764Z,100287.53
2019-04-29T19:24:56.224Z,100294.48
2019-04-29T19:29:59.685Z,100300.22
2019-04-29T19:35:03.865Z,100302.82
2019-04-29T19:40:08.288Z,100301.86
2019-04-29T19:45:13.099Z,100300.28
2019-04-29T19:50:19.566Z,100307.41
2019-04-29T19:55:22.398Z,100308.63
2019-04-29T20:00:29.483Z,100308.09
2019-04-29T20:05:38.915Z,100308.53
2019-04-29T20:10:46.309Z,100316.09
2019-04-29T20:15:45.979Z,100314.70
2019-04-29T20:20:51.661Z,100308.78
2019-04-29T20:26:05.523Z,100314.34
2019-04-29T20:31:15.583Z,100320.30
2019-04-29T20:36:06.273Z,100320.30
2019-04-29T20:41:13.110Z,100337.61
2019-04-29T20:46:15.937Z,100329.72
2019-04-29T20:51:23.311Z,100333.26
2019-04-29T20:56:29.817Z,100335.09
2019-04-29T21:01:37.480Z,100338.67
2019-04-29T21:06:43.874Z,100340.05
2019-04-29T21:11:47.034Z,100338.48
2019-04-29T21:16:52.165Z,100344.64
2019-04-29T21:21:55.629Z,100344.64
2019-04-29T21:26:59.088Z,100344.47
2019-04-29T21:32:02.621Z,100348.64
2019-04-29T21:37:22.661Z,100352.80
2019-04-29T21:42:35.484Z,100355.41
2019-04-29T21:47:44.443Z,100361.75
2019-04-29T21:52:44.731Z,100364.53
2019-04-29T21:57:48.790Z,100367.31
2019-04-29T22:02:52.328Z,100367.31
2019-04-29T22:07:55.960Z,100374.86
2019-04-29T22:13:02.277Z,100375.47
2019-04-29T22:18:08.604Z,100381.81
2019-04-29T22:23:13.279Z,100377.46
2019-04-29T22:28:19.559Z,100384.41
2019-04-29T22:33:20.434Z,100383.02
2019-04-29T22:38:24.982Z,100384.41
2019-04-29T22:43:30.282Z,100383.81
2019-04-29T22:48:34.896Z,100380.06
2019-04-29T22:53:40.039Z,100385.02
2019-04-29T22:58:45.123Z,100391.17
2019-04-29T23:03:48.822Z,100391.78
2019-04-29T23:08:52.295Z,100402.11
2019-04-29T23:13:55.750Z,100397.52
2019-04-29T23:18:59.210Z,100398.91
2019-04-29T23:24:13.018Z,100398.12
2019-04-29T23:29:12.168Z,100392.38
2019-04-29T23:34:15.697Z,100389.78
2019-04-29T23:39:19.166Z,100385.02
2019-04-29T23:44:22.629Z,100387.98
2019-04-29T23:49:26.092Z,100384.05
2019-04-29T23:54:29.554Z,100387.01
2019-04-29T23:59:37.146Z,100382.84
